sensor_id;sensor_type;location;lat;lon;timestamp;P1;durP1;ratioP1;P2;durP2;ratioP2
41568;SDS011;27283;52.504;13.358;2023-08-20T00:00:23;21.73;;;16.70;;
41568;SDS011;27283;52.504;13.358;2023-08-20T00:03:16;24.33;;;18.25;;
41568;SDS011;27283;52.504;13.358;2023-08-20T00:05:52;23.73;;;17.10;;
41568;SDS011;27283;52.504;13.358;2023-08-20T00:08:26;23.02;;;17.23;;
41568;SDS011;27283;52.504;13.358;2023-08-20T00:10:58;22.50;;;16.98;;
41568;SDS011;27283;52.504;13.358;2023-08-20T00:13:31;23.98;;;17.30;;
41568;SDS011;27283;52.504;13.358;2023-08-20T00:16:04;23.58;;;17.20;;
41568;SDS011;27283;52.504;13.358;2023-08-20T00:18:54;21.92;;;17.08;;
41568;SDS011;27283;52.504;13.358;2023-08-20T00:21:32;22.00;;;17.05;;
41568;SDS011;27283;52.504;13.358;2023-08-20T00:24:05;22.23;;;16.88;;
41568;SDS011;27283;52.504;13.358;2023-08-20T00:27:13;23.85;;;16.33;;
41568;SDS011;27283;52.504;13.358;2023-08-20T00:29:49;26.63;;;17.65;;
41568;SDS011;27283;52.504;13.358;2023-08-20T00:32:21;25.85;;;17.15;;
41568;SDS011;27283;52.504;13.358;2023-08-20T00:34:54;22.02;;;17.15;;
41568;SDS011;27283;52.504;13.358;2023-08-20T00:37:30;23.48;;;16.92;;
41568;SDS011;27283;52.504;13.358;2023-08-20T00:40:03;22.80;;;17.33;;
41568;SDS011;27283;52.504;13.358;2023-08-20T00:42:38;23.98;;;17.65;;
41568;SDS011;27283;52.504;13.358;2023-08-20T00:45:10;25.35;;;17.92;;
41568;SDS011;27283;52.504;13.358;2023-08-20T00:47:42;24.73;;;18.02;;
41568;SDS011;27283;52.504;13.358;2023-08-20T00:50:15;25.13;;;17.77;;
41568;SDS011;27283;52.504;13.358;2023-08-20T00:52:51;23.95;;;17.70;;
41568;SDS011;27283;52.504;13.358;2023-08-20T00:55:23;21.67;;;15.93;;
41568;SDS011;27283;52.504;13.358;2023-08-20T00:57:56;24.55;;;16.00;;
41568;SDS011;27283;52.504;13.358;2023-08-20T01:00:29;24.92;;;16.17;;
41568;SDS011;27283;52.504;13.358;2023-08-20T01:03:01;22.55;;;16.27;;
41568;SDS011;27283;52.504;13.358;2023-08-20T01:05:36;22.75;;;16.40;;
41568;SDS011;27283;52.504;13.358;2023-08-20T01:08:23;22.90;;;15.27;;
41568;SDS011;27283;52.504;13.358;2023-08-20T01:11:03;28.23;;;16.90;;
41568;SDS011;27283;52.504;13.358;2023-08-20T01:13:43;23.75;;;16.10;;
41568;SDS011;27283;52.504;13.358;2023-08-20T01:16:18;26.55;;;16.77;;
41568;SDS011;27283;52.504;13.358;2023-08-20T01:19:03;24.00;;;16.30;;
41568;SDS011;27283;52.504;13.358;2023-08-20T01:21:37;22.13;;;16.10;;
41568;SDS011;27283;52.504;13.358;2023-08-20T01:24:21;27.08;;;16.35;;
41568;SDS011;27283;52.504;13.358;2023-08-20T01:27:08;22.77;;;16.30;;
41568;SDS011;27283;52.504;13.358;2023-08-20T01:29:53;23.92;;;16.55;;
41568;SDS011;27283;52.504;13.358;2023-08-20T01:32:27;27.40;;;17.48;;
41568;SDS011;27283;52.504;13.358;2023-08-20T01:34:59;24.33;;;16.42;;
41568;SDS011;27283;52.504;13.358;2023-08-20T01:38:06;29.80;;;17.35;;
41568;SDS011;27283;52.504;13.358;2023-08-20T01:40:41;29.08;;;16.92;;
41568;SDS011;27283;52.504;13.358;2023-08-20T01:43:14;25.90;;;16.35;;
41568;SDS011;27283;52.504;13.358;2023-08-20T01:45:51;31.48;;;17.15;;
41568;SDS011;27283;52.504;13.358;2023-08-20T01:48:26;24.63;;;15.93;;
41568;SDS011;27283;52.504;13.358;2023-08-20T01:50:57;26.45;;;17.25;;
41568;SDS011;27283;52.504;13.358;2023-08-20T01:53:36;25.05;;;16.92;;
41568;SDS011;27283;52.504;13.358;2023-08-20T01:56:10;25.58;;;16.98;;
41568;SDS011;27283;52.504;13.358;2023-08-20T01:58:44;26.30;;;15.80;;
41568;SDS011;27283;52.504;13.358;2023-08-20T02:01:28;23.35;;;16.42;;
41568;SDS011;27283;52.504;13.358;2023-08-20T02:04:03;24.95;;;16.63;;
41568;SDS011;27283;52.504;13.358;2023-08-20T02:06:43;27.30;;;16.63;;
41568;SDS011;27283;52.504;13.358;2023-08-20T02:09:15;28.08;;;16.83;;
41568;SDS011;27283;52.504;13.358;2023-08-20T02:11:48;24.48;;;16.60;;
41568;SDS011;27283;52.504;13.358;2023-08-20T02:14:20;26.70;;;17.00;;
41568;SDS011;27283;52.504;13.358;2023-08-20T02:16:55;26.00;;;17.38;;
41568;SDS011;27283;52.504;13.358;2023-08-20T02:19:27;22.60;;;15.85;;
41568;SDS011;27283;52.504;13.358;2023-08-20T02:21:59;28.25;;;17.77;;
41568;SDS011;27283;52.504;13.358;2023-08-20T02:24:31;31.30;;;17.80;;
41568;SDS011;27283;52.504;13.358;2023-08-20T02:27:03;24.77;;;16.52;;
41568;SDS011;27283;52.504;13.358;2023-08-20T02:29:35;23.83;;;16.80;;
41568;SDS011;27283;52.504;13.358;2023-08-20T02:32:10;24.85;;;16.67;;
41568;SDS011;27283;52.504;13.358;2023-08-20T02:34:48;26.85;;;16.73;;
41568;SDS011;27283;52.504;13.358;2023-08-20T02:37:23;24.92;;;16.33;;
41568;SDS011;27283;52.504;13.358;2023-08-20T02:40:12;22.10;;;16.02;;
41568;SDS011;27283;52.504;13.358;2023-08-20T02:42:44;26.20;;;16.25;;
41568;SDS011;27283;52.504;13.358;2023-08-20T02:45:16;22.75;;;14.95;;
41568;SDS011;27283;52.504;13.358;2023-08-20T02:47:51;25.35;;;15.30;;
41568;SDS011;27283;52.504;13.358;2023-08-20T02:50:23;22.25;;;14.95;;
41568;SDS011;27283;52.504;13.358;2023-08-20T02:52:55;25.45;;;15.45;;
41568;SDS011;27283;52.504;13.358;2023-08-20T02:55:31;22.92;;;15.00;;
41568;SDS011;27283;52.504;13.358;2023-08-20T02:58:06;23.92;;;15.10;;
41568;SDS011;27283;52.504;13.358;2023-08-20T03:00:38;23.77;;;15.25;;
41568;SDS011;27283;52.504;13.358;2023-08-20T03:03:16;23.05;;;14.38;;
41568;SDS011;27283;52.504;13.358;2023-08-20T03:05:48;23.05;;;14.73;;
41568;SDS011;27283;52.504;13.358;2023-08-20T03:08:24;20.60;;;14.93;;
41568;SDS011;27283;52.504;13.358;2023-08-20T03:10:56;25.20;;;14.70;;
41568;SDS011;27283;52.504;13.358;2023-08-20T03:13:29;22.67;;;15.00;;
41568;SDS011;27283;52.504;13.358;2023-08-20T03:16:01;24.38;;;15.20;;
41568;SDS011;27283;52.504;13.358;2023-08-20T03:18:36;24.35;;;15.30;;
41568;SDS011;27283;52.504;13.358;2023-08-20T03:21:09;26.83;;;15.55;;
41568;SDS011;27283;52.504;13.358;2023-08-20T03:23:41;24.23;;;15.38;;
41568;SDS011;27283;52.504;13.358;2023-08-20T03:26:14;22.90;;;15.50;;
41568;SDS011;27283;52.504;13.358;2023-08-20T03:28:46;22.13;;;15.43;;
41568;SDS011;27283;52.504;13.358;2023-08-20T03:31:19;26.30;;;15.57;;
41568;SDS011;27283;52.504;13.358;2023-08-20T03:33:58;22.52;;;15.13;;
41568;SDS011;27283;52.504;13.358;2023-08-20T03:36:31;27.20;;;16.00;;
41568;SDS011;27283;52.504;13.358;2023-08-20T03:39:03;23.88;;;16.33;;
41568;SDS011;27283;52.504;13.358;2023-08-20T03:41:37;26.67;;;16.67;;
41568;SDS011;27283;52.504;13.358;2023-08-20T03:44:12;25.17;;;15.98;;
41568;SDS011;27283;52.504;13.358;2023-08-20T03:46:45;23.45;;;15.52;;
41568;SDS011;27283;52.504;13.358;2023-08-20T03:49:19;27.92;;;17.35;;
41568;SDS011;27283;52.504;13.358;2023-08-20T03:51:53;27.60;;;17.23;;
41568;SDS011;27283;52.504;13.358;2023-08-20T03:54:25;28.25;;;16.08;;
41568;SDS011;27283;52.504;13.358;2023-08-20T03:56:57;25.58;;;16.73;;
41568;SDS011;27283;52.504;13.358;2023-08-20T03:59:29;28.15;;;17.17;;
41568;SDS011;27283;52.504;13.358;2023-08-20T04:02:02;27.65;;;17.92;;
41568;SDS011;27283;52.504;13.358;2023-08-20T04:04:37;25.73;;;16.63;;
41568;SDS011;27283;52.504;13.358;2023-08-20T04:07:12;28.67;;;17.67;;
41568;SDS011;27283;52.504;13.358;2023-08-20T04:09:47;28.95;;;17.55;;
41568;SDS011;27283;52.504;13.358;2023-08-20T04:12:26;27.77;;;18.67;;
41568;SDS011;27283;52.504;13.358;2023-08-20T04:14:58;34.85;;;18.45;;
41568;SDS011;27283;52.504;13.358;2023-08-20T04:17:31;29.17;;;18.88;;
41568;SDS011;27283;52.504;13.358;2023-08-20T04:20:06;31.20;;;18.90;;
41568;SDS011;27283;52.504;13.358;2023-08-20T04:22:40;28.90;;;18.33;;
41568;SDS011;27283;52.504;13.358;2023-08-20T04:25:12;27.40;;;17.92;;
41568;SDS011;27283;52.504;13.358;2023-08-20T04:27:44;32.45;;;18.88;;
41568;SDS011;27283;52.504;13.358;2023-08-20T04:30:16;30.08;;;19.23;;
41568;SDS011;27283;52.504;13.358;2023-08-20T04:32:48;30.33;;;19.08;;
41568;SDS011;27283;52.504;13.358;2023-08-20T04:35:23;30.67;;;18.98;;
41568;SDS011;27283;52.504;13.358;2023-08-20T04:38:18;32.17;;;19.35;;
41568;SDS011;27283;52.504;13.358;2023-08-20T04:40:50;27.27;;;18.60;;
41568;SDS011;27283;52.504;13.358;2023-08-20T04:43:22;28.88;;;18.40;;
41568;SDS011;27283;52.504;13.358;2023-08-20T04:45:54;32.97;;;20.17;;
41568;SDS011;27283;52.504;13.358;2023-08-20T04:48:26;33.38;;;19.67;;
41568;SDS011;27283;52.504;13.358;2023-08-20T04:51:01;29.80;;;19.23;;
41568;SDS011;27283;52.504;13.358;2023-08-20T04:53:33;29.70;;;18.73;;
41568;SDS011;27283;52.504;13.358;2023-08-20T04:56:05;34.83;;;19.98;;
41568;SDS011;27283;52.504;13.358;2023-08-20T04:58:37;38.20;;;21.30;;
41568;SDS011;27283;52.504;13.358;2023-08-20T05:01:09;32.65;;;20.90;;
41568;SDS011;27283;52.504;13.358;2023-08-20T05:03:44;35.67;;;21.33;;
41568;SDS011;27283;52.504;13.358;2023-08-20T05:06:22;35.10;;;21.60;;
41568;SDS011;27283;52.504;13.358;2023-08-20T05:08:54;32.72;;;21.20;;
41568;SDS011;27283;52.504;13.358;2023-08-20T05:11:26;34.72;;;20.58;;
41568;SDS011;27283;52.504;13.358;2023-08-20T05:14:00;32.92;;;20.90;;
41568;SDS011;27283;52.504;13.358;2023-08-20T05:16:32;31.40;;;20.15;;
41568;SDS011;27283;52.504;13.358;2023-08-20T05:19:29;32.92;;;20.58;;
41568;SDS011;27283;52.504;13.358;2023-08-20T05:22:29;37.25;;;22.33;;
41568;SDS011;27283;52.504;13.358;2023-08-20T05:25:26;32.60;;;21.10;;
41568;SDS011;27283;52.504;13.358;2023-08-20T05:28:01;36.15;;;21.02;;
41568;SDS011;27283;52.504;13.358;2023-08-20T05:30:34;35.92;;;20.38;;
41568;SDS011;27283;52.504;13.358;2023-08-20T05:33:09;28.27;;;18.52;;
41568;SDS011;27283;52.504;13.358;2023-08-20T05:35:44;33.00;;;20.63;;
41568;SDS011;27283;52.504;13.358;2023-08-20T05:38:21;28.92;;;19.08;;
41568;SDS011;27283;52.504;13.358;2023-08-20T05:40:53;31.92;;;19.98;;
41568;SDS011;27283;52.504;13.358;2023-08-20T05:43:25;37.70;;;20.63;;
41568;SDS011;27283;52.504;13.358;2023-08-20T05:45:58;35.30;;;20.88;;
41568;SDS011;27283;52.504;13.358;2023-08-20T05:48:32;37.15;;;20.88;;
41568;SDS011;27283;52.504;13.358;2023-08-20T05:51:08;33.53;;;20.80;;
41568;SDS011;27283;52.504;13.358;2023-08-20T05:53:44;32.38;;;20.27;;
41568;SDS011;27283;52.504;13.358;2023-08-20T05:56:16;30.25;;;19.13;;
41568;SDS011;27283;52.504;13.358;2023-08-20T05:58:48;33.58;;;19.35;;
41568;SDS011;27283;52.504;13.358;2023-08-20T06:01:21;31.05;;;19.27;;
41568;SDS011;27283;52.504;13.358;2023-08-20T06:03:57;29.77;;;19.35;;
41568;SDS011;27283;52.504;13.358;2023-08-20T06:06:36;32.35;;;19.23;;
41568;SDS011;27283;52.504;13.358;2023-08-20T06:09:12;33.10;;;20.48;;
41568;SDS011;27283;52.504;13.358;2023-08-20T06:11:50;33.00;;;19.77;;
41568;SDS011;27283;52.504;13.358;2023-08-20T06:14:28;31.85;;;20.40;;
41568;SDS011;27283;52.504;13.358;2023-08-20T06:17:00;34.90;;;22.17;;
41568;SDS011;27283;52.504;13.358;2023-08-20T06:19:33;35.72;;;21.67;;
41568;SDS011;27283;52.504;13.358;2023-08-20T06:22:06;35.30;;;21.08;;
41568;SDS011;27283;52.504;13.358;2023-08-20T06:24:41;35.40;;;20.70;;
41568;SDS011;27283;52.504;13.358;2023-08-20T06:27:18;32.97;;;19.23;;
41568;SDS011;27283;52.504;13.358;2023-08-20T06:29:51;33.83;;;21.25;;
41568;SDS011;27283;52.504;13.358;2023-08-20T06:32:23;32.20;;;20.92;;
41568;SDS011;27283;52.504;13.358;2023-08-20T06:34:56;36.85;;;20.65;;
41568;SDS011;27283;52.504;13.358;2023-08-20T06:37:28;35.80;;;20.45;;
41568;SDS011;27283;52.504;13.358;2023-08-20T06:40:05;34.40;;;20.00;;
41568;SDS011;27283;52.504;13.358;2023-08-20T06:42:50;32.47;;;19.95;;
41568;SDS011;27283;52.504;13.358;2023-08-20T06:45:26;35.55;;;20.80;;
41568;SDS011;27283;52.504;13.358;2023-08-20T06:47:58;33.42;;;20.92;;
41568;SDS011;27283;52.504;13.358;2023-08-20T06:50:31;33.00;;;19.55;;
41568;SDS011;27283;52.504;13.358;2023-08-20T06:53:06;32.78;;;19.58;;
41568;SDS011;27283;52.504;13.358;2023-08-20T06:55:41;27.50;;;18.58;;
41568;SDS011;27283;52.504;13.358;2023-08-20T06:58:13;32.00;;;18.45;;
41568;SDS011;27283;52.504;13.358;2023-08-20T07:00:46;32.97;;;18.88;;
41568;SDS011;27283;52.504;13.358;2023-08-20T07:03:18;32.78;;;18.63;;
41568;SDS011;27283;52.504;13.358;2023-08-20T07:05:51;32.90;;;18.33;;
41568;SDS011;27283;52.504;13.358;2023-08-20T07:08:23;29.38;;;17.27;;
41568;SDS011;27283;52.504;13.358;2023-08-20T07:10:58;25.95;;;16.67;;
41568;SDS011;27283;52.504;13.358;2023-08-20T07:13:32;30.05;;;17.60;;
41568;SDS011;27283;52.504;13.358;2023-08-20T07:16:07;27.95;;;16.52;;
41568;SDS011;27283;52.504;13.358;2023-08-20T07:18:42;27.33;;;17.08;;
41568;SDS011;27283;52.504;13.358;2023-08-20T07:21:15;27.73;;;16.55;;
41568;SDS011;27283;52.504;13.358;2023-08-20T07:23:49;30.42;;;17.05;;
41568;SDS011;27283;52.504;13.358;2023-08-20T07:26:32;29.10;;;15.95;;
41568;SDS011;27283;52.504;13.358;2023-08-20T07:29:04;27.58;;;15.88;;
41568;SDS011;27283;52.504;13.358;2023-08-20T07:31:36;26.27;;;14.95;;
41568;SDS011;27283;52.504;13.358;2023-08-20T07:34:08;26.63;;;15.00;;
41568;SDS011;27283;52.504;13.358;2023-08-20T07:36:40;23.65;;;14.48;;
41568;SDS011;27283;52.504;13.358;2023-08-20T07:39:12;21.15;;;13.20;;
41568;SDS011;27283;52.504;13.358;2023-08-20T07:41:49;23.27;;;13.98;;
41568;SDS011;27283;52.504;13.358;2023-08-20T07:44:21;23.23;;;13.50;;
41568;SDS011;27283;52.504;13.358;2023-08-20T07:46:54;23.10;;;14.30;;
41568;SDS011;27283;52.504;13.358;2023-08-20T07:49:26;28.33;;;17.27;;
41568;SDS011;27283;52.504;13.358;2023-08-20T07:51:58;25.23;;;16.48;;
41568;SDS011;27283;52.504;13.358;2023-08-20T07:54:32;27.20;;;17.02;;
41568;SDS011;27283;52.504;13.358;2023-08-20T07:57:10;27.08;;;15.68;;
41568;SDS011;27283;52.504;13.358;2023-08-20T07:59:42;27.20;;;14.88;;
41568;SDS011;27283;52.504;13.358;2023-08-20T08:02:16;21.60;;;13.90;;
41568;SDS011;27283;52.504;13.358;2023-08-20T08:04:54;21.83;;;14.40;;
41568;SDS011;27283;52.504;13.358;2023-08-20T08:07:26;20.33;;;12.70;;
41568;SDS011;27283;52.504;13.358;2023-08-20T08:10:02;20.27;;;12.88;;
41568;SDS011;27283;52.504;13.358;2023-08-20T08:12:38;19.42;;;12.15;;
41568;SDS011;27283;52.504;13.358;2023-08-20T08:15:10;18.90;;;11.98;;
41568;SDS011;27283;52.504;13.358;2023-08-20T08:17:42;18.83;;;11.77;;
41568;SDS011;27283;52.504;13.358;2023-08-20T08:20:15;19.35;;;12.18;;
41568;SDS011;27283;52.504;13.358;2023-08-20T08:22:47;17.17;;;10.88;;
41568;SDS011;27283;52.504;13.358;2023-08-20T08:25:19;16.08;;;10.68;;
41568;SDS011;27283;52.504;13.358;2023-08-20T08:28:08;15.02;;;9.73;;
41568;SDS011;27283;52.504;13.358;2023-08-20T08:30:44;18.02;;;9.38;;
41568;SDS011;27283;52.504;13.358;2023-08-20T08:33:16;14.15;;;8.63;;
41568;SDS011;27283;52.504;13.358;2023-08-20T08:36:14;13.40;;;8.77;;
41568;SDS011;27283;52.504;13.358;2023-08-20T08:41:48;15.68;;;8.40;;
41568;SDS011;27283;52.504;13.358;2023-08-20T08:44:25;15.15;;;8.82;;
41568;SDS011;27283;52.504;13.358;2023-08-20T08:46:58;11.95;;;8.07;;
41568;SDS011;27283;52.504;13.358;2023-08-20T08:49:36;12.55;;;7.88;;
41568;SDS011;27283;52.504;13.358;2023-08-20T08:52:23;11.90;;;7.45;;
41568;SDS011;27283;52.504;13.358;2023-08-20T08:54:57;10.15;;;6.78;;
41568;SDS011;27283;52.504;13.358;2023-08-20T08:57:43;12.02;;;6.82;;
41568;SDS011;27283;52.504;13.358;2023-08-20T09:00:18;12.75;;;6.60;;
41568;SDS011;27283;52.504;13.358;2023-08-20T09:02:50;10.05;;;6.78;;
41568;SDS011;27283;52.504;13.358;2023-08-20T09:05:25;13.23;;;7.00;;
41568;SDS011;27283;52.504;13.358;2023-08-20T09:07:58;11.57;;;7.47;;
41568;SDS011;27283;52.504;13.358;2023-08-20T09:10:30;10.05;;;6.70;;
41568;SDS011;27283;52.504;13.358;2023-08-20T09:13:05;11.05;;;6.68;;
41568;SDS011;27283;52.504;13.358;2023-08-20T09:16:13;11.07;;;6.97;;
41568;SDS011;27283;52.504;13.358;2023-08-20T09:18:46;8.77;;;6.20;;
41568;SDS011;27283;52.504;13.358;2023-08-20T09:21:18;9.15;;;6.15;;
41568;SDS011;27283;52.504;13.358;2023-08-20T09:24:31;9.63;;;6.30;;
41568;SDS011;27283;52.504;13.358;2023-08-20T09:27:18;10.18;;;5.88;;
41568;SDS011;27283;52.504;13.358;2023-08-20T09:30:18;9.80;;;6.00;;
41568;SDS011;27283;52.504;13.358;2023-08-20T09:33:11;8.00;;;4.97;;
41568;SDS011;27283;52.504;13.358;2023-08-20T09:36:30;7.45;;;5.50;;
41568;SDS011;27283;52.504;13.358;2023-08-20T09:39:25;8.10;;;5.20;;
41568;SDS011;27283;52.504;13.358;2023-08-20T09:42:11;12.23;;;5.78;;
41568;SDS011;27283;52.504;13.358;2023-08-20T09:44:45;8.18;;;5.00;;
41568;SDS011;27283;52.504;13.358;2023-08-20T09:47:19;7.88;;;5.30;;
41568;SDS011;27283;52.504;13.358;2023-08-20T09:49:58;8.38;;;5.00;;
41568;SDS011;27283;52.504;13.358;2023-08-20T09:52:34;10.13;;;4.53;;
41568;SDS011;27283;52.504;13.358;2023-08-20T09:55:11;7.30;;;4.35;;
41568;SDS011;27283;52.504;13.358;2023-08-20T10:00:56;7.47;;;4.40;;
41568;SDS011;27283;52.504;13.358;2023-08-20T10:04:45;6.65;;;4.10;;
41568;SDS011;27283;52.504;13.358;2023-08-20T10:07:42;7.05;;;3.83;;
41568;SDS011;27283;52.504;13.358;2023-08-20T10:11:20;7.68;;;4.38;;
41568;SDS011;27283;52.504;13.358;2023-08-20T10:14:58;5.30;;;3.40;;
41568;SDS011;27283;52.504;13.358;2023-08-20T10:17:52;5.72;;;3.78;;
41568;SDS011;27283;52.504;13.358;2023-08-20T10:21:41;8.35;;;3.88;;
41568;SDS011;27283;52.504;13.358;2023-08-20T10:28:38;6.35;;;2.92;;
41568;SDS011;27283;52.504;13.358;2023-08-20T10:32:04;4.70;;;2.88;;
41568;SDS011;27283;52.504;13.358;2023-08-20T10:35:16;4.82;;;3.10;;
41568;SDS011;27283;52.504;13.358;2023-08-20T10:38:54;4.13;;;3.00;;
41568;SDS011;27283;52.504;13.358;2023-08-20T10:46:39;4.78;;;3.17;;
41568;SDS011;27283;52.504;13.358;2023-08-20T10:50:23;5.57;;;3.22;;
41568;SDS011;27283;52.504;13.358;2023-08-20T10:58:02;7.40;;;2.97;;
41568;SDS011;27283;52.504;13.358;2023-08-20T11:01:55;4.88;;;3.15;;
41568;SDS011;27283;52.504;13.358;2023-08-20T11:04:49;4.57;;;2.80;;
41568;SDS011;27283;52.504;13.358;2023-08-20T11:08:10;5.25;;;3.00;;
41568;SDS011;27283;52.504;13.358;2023-08-20T11:11:19;5.80;;;3.63;;
41568;SDS011;27283;52.504;13.358;2023-08-20T11:14:09;3.40;;;2.90;;
41568;SDS011;27283;52.504;13.358;2023-08-20T11:17:53;3.53;;;2.53;;
41568;SDS011;27283;52.504;13.358;2023-08-20T11:20:53;4.70;;;2.85;;
41568;SDS011;27283;52.504;13.358;2023-08-20T11:28:27;7.22;;;3.05;;
41568;SDS011;27283;52.504;13.358;2023-08-20T11:32:05;6.40;;;3.13;;
41568;SDS011;27283;52.504;13.358;2023-08-20T11:35:33;6.70;;;3.25;;
41568;SDS011;27283;52.504;13.358;2023-08-20T11:38:42;4.20;;;2.50;;
41568;SDS011;27283;52.504;13.358;2023-08-20T11:46:12;5.65;;;2.88;;
41568;SDS011;27283;52.504;13.358;2023-08-20T11:53:13;5.68;;;2.95;;
41568;SDS011;27283;52.504;13.358;2023-08-20T11:57:12;8.32;;;2.78;;
41568;SDS011;27283;52.504;13.358;2023-08-20T12:01:06;3.45;;;2.45;;
41568;SDS011;27283;52.504;13.358;2023-08-20T12:04:29;5.35;;;2.72;;
41568;SDS011;27283;52.504;13.358;2023-08-20T12:11:28;5.05;;;2.70;;
41568;SDS011;27283;52.504;13.358;2023-08-20T12:14:24;6.15;;;2.72;;
41568;SDS011;27283;52.504;13.358;2023-08-20T12:21:42;5.15;;;2.67;;
41568;SDS011;27283;52.504;13.358;2023-08-20T12:29:08;4.47;;;2.30;;
41568;SDS011;27283;52.504;13.358;2023-08-20T12:32:29;4.85;;;2.40;;
41568;SDS011;27283;52.504;13.358;2023-08-20T12:35:50;4.05;;;2.30;;
41568;SDS011;27283;52.504;13.358;2023-08-20T12:38:26;4.07;;;2.50;;
41568;SDS011;27283;52.504;13.358;2023-08-20T12:41:34;5.78;;;2.47;;
41568;SDS011;27283;52.504;13.358;2023-08-20T12:47:37;4.22;;;2.28;;
41568;SDS011;27283;52.504;13.358;2023-08-20T12:50:24;3.08;;;2.17;;
41568;SDS011;27283;52.504;13.358;2023-08-20T12:53:32;4.85;;;2.28;;
41568;SDS011;27283;52.504;13.358;2023-08-20T13:01:19;5.90;;;2.72;;
41568;SDS011;27283;52.504;13.358;2023-08-20T13:04:46;4.03;;;2.00;;
41568;SDS011;27283;52.504;13.358;2023-08-20T13:08:04;4.18;;;2.05;;
41568;SDS011;27283;52.504;13.358;2023-08-20T13:23:01;3.90;;;1.92;;
41568;SDS011;27283;52.504;13.358;2023-08-20T13:26:11;4.53;;;1.90;;
41568;SDS011;27283;52.504;13.358;2023-08-20T13:30:09;2.90;;;1.85;;
41568;SDS011;27283;52.504;13.358;2023-08-20T13:34:20;2.50;;;1.70;;
41568;SDS011;27283;52.504;13.358;2023-08-20T13:41:48;5.70;;;1.90;;
41568;SDS011;27283;52.504;13.358;2023-08-20T13:45:09;3.45;;;1.65;;
41568;SDS011;27283;52.504;13.358;2023-08-20T13:48:08;3.22;;;1.58;;
41568;SDS011;27283;52.504;13.358;2023-08-20T13:51:48;4.40;;;1.70;;
41568;SDS011;27283;52.504;13.358;2023-08-20T13:58:53;5.00;;;1.90;;
41568;SDS011;27283;52.504;13.358;2023-08-20T14:02:40;4.47;;;1.98;;
41568;SDS011;27283;52.504;13.358;2023-08-20T14:06:15;13.20;;;2.30;;
41568;SDS011;27283;52.504;13.358;2023-08-20T14:09:08;4.25;;;1.90;;
41568;SDS011;27283;52.504;13.358;2023-08-20T14:16:17;4.47;;;1.45;;
41568;SDS011;27283;52.504;13.358;2023-08-20T14:20:28;4.20;;;1.75;;
41568;SDS011;27283;52.504;13.358;2023-08-20T14:24:16;4.57;;;1.65;;
41568;SDS011;27283;52.504;13.358;2023-08-20T14:27:48;2.92;;;1.40;;
41568;SDS011;27283;52.504;13.358;2023-08-20T14:31:38;3.55;;;1.60;;
41568;SDS011;27283;52.504;13.358;2023-08-20T14:34:33;3.63;;;1.38;;
41568;SDS011;27283;52.504;13.358;2023-08-20T14:38:45;4.30;;;1.40;;
41568;SDS011;27283;52.504;13.358;2023-08-20T14:41:26;4.10;;;1.25;;
41568;SDS011;27283;52.504;13.358;2023-08-20T14:44:20;2.90;;;1.50;;
41568;SDS011;27283;52.504;13.358;2023-08-20T14:46:56;5.43;;;1.73;;
41568;SDS011;27283;52.504;13.358;2023-08-20T14:49:29;3.00;;;1.30;;
41568;SDS011;27283;52.504;13.358;2023-08-20T14:52:07;3.97;;;1.38;;
41568;SDS011;27283;52.504;13.358;2023-08-20T14:55:10;3.35;;;1.20;;
41568;SDS011;27283;52.504;13.358;2023-08-20T14:57:43;5.47;;;1.60;;
41568;SDS011;27283;52.504;13.358;2023-08-20T15:00:19;4.80;;;1.60;;
41568;SDS011;27283;52.504;13.358;2023-08-20T15:02:56;4.65;;;1.42;;
41568;SDS011;27283;52.504;13.358;2023-08-20T15:05:29;2.63;;;1.58;;
41568;SDS011;27283;52.504;13.358;2023-08-20T15:08:02;3.13;;;1.42;;
41568;SDS011;27283;52.504;13.358;2023-08-20T15:10:38;3.30;;;1.50;;
41568;SDS011;27283;52.504;13.358;2023-08-20T15:13:18;2.63;;;1.30;;
41568;SDS011;27283;52.504;13.358;2023-08-20T15:17:08;3.00;;;1.45;;
41568;SDS011;27283;52.504;13.358;2023-08-20T15:23:04;4.40;;;1.48;;
41568;SDS011;27283;52.504;13.358;2023-08-20T15:26:19;5.45;;;1.70;;
41568;SDS011;27283;52.504;13.358;2023-08-20T15:29:09;3.70;;;1.20;;
41568;SDS011;27283;52.504;13.358;2023-08-20T15:31:46;3.20;;;1.27;;
41568;SDS011;27283;52.504;13.358;2023-08-20T15:34:24;5.18;;;1.50;;
41568;SDS011;27283;52.504;13.358;2023-08-20T15:37:21;5.03;;;1.67;;
41568;SDS011;27283;52.504;13.358;2023-08-20T15:39:55;6.20;;;1.30;;
41568;SDS011;27283;52.504;13.358;2023-08-20T15:42:59;2.55;;;1.20;;
41568;SDS011;27283;52.504;13.358;2023-08-20T15:45:59;4.57;;;1.50;;
41568;SDS011;27283;52.504;13.358;2023-08-20T15:49:00;5.70;;;1.70;;
41568;SDS011;27283;52.504;13.358;2023-08-20T15:51:46;4.32;;;1.35;;
41568;SDS011;27283;52.504;13.358;2023-08-20T15:54:23;2.67;;;1.17;;
41568;SDS011;27283;52.504;13.358;2023-08-20T15:56:56;3.42;;;1.50;;
41568;SDS011;27283;52.504;13.358;2023-08-20T15:59:28;3.60;;;1.50;;
41568;SDS011;27283;52.504;13.358;2023-08-20T16:02:01;3.25;;;1.45;;
41568;SDS011;27283;52.504;13.358;2023-08-20T16:04:40;5.00;;;1.40;;
41568;SDS011;27283;52.504;13.358;2023-08-20T16:07:17;6.38;;;1.63;;
41568;SDS011;27283;52.504;13.358;2023-08-20T16:09:59;4.93;;;1.50;;
41568;SDS011;27283;52.504;13.358;2023-08-20T16:13:55;4.63;;;1.80;;
41568;SDS011;27283;52.504;13.358;2023-08-20T16:16:23;3.17;;;1.17;;
41568;SDS011;27283;52.504;13.358;2023-08-20T16:18:59;3.72;;;1.63;;
41568;SDS011;27283;52.504;13.358;2023-08-20T16:21:32;4.60;;;1.52;;
41568;SDS011;27283;52.504;13.358;2023-08-20T16:24:04;5.78;;;1.75;;
41568;SDS011;27283;52.504;13.358;2023-08-20T16:26:43;6.72;;;1.45;;
41568;SDS011;27283;52.504;13.358;2023-08-20T16:29:33;5.85;;;1.70;;
41568;SDS011;27283;52.504;13.358;2023-08-20T16:32:15;2.53;;;1.25;;
41568;SDS011;27283;52.504;13.358;2023-08-20T16:34:48;3.22;;;1.38;;
41568;SDS011;27283;52.504;13.358;2023-08-20T16:37:20;2.67;;;1.42;;
41568;SDS011;27283;52.504;13.358;2023-08-20T16:39:56;4.82;;;1.83;;
41568;SDS011;27283;52.504;13.358;2023-08-20T16:43:15;5.20;;;1.52;;
41568;SDS011;27283;52.504;13.358;2023-08-20T16:46:15;4.40;;;1.48;;
41568;SDS011;27283;52.504;13.358;2023-08-20T16:49:05;5.05;;;2.00;;
41568;SDS011;27283;52.504;13.358;2023-08-20T16:52:15;5.35;;;1.80;;
41568;SDS011;27283;52.504;13.358;2023-08-20T16:54:50;6.78;;;1.55;;
41568;SDS011;27283;52.504;13.358;2023-08-20T16:57:36;6.30;;;1.75;;
41568;SDS011;27283;52.504;13.358;2023-08-20T17:00:29;4.72;;;1.65;;
41568;SDS011;27283;52.504;13.358;2023-08-20T17:03:04;6.28;;;1.85;;
41568;SDS011;27283;52.504;13.358;2023-08-20T17:05:40;7.07;;;1.60;;
41568;SDS011;27283;52.504;13.358;2023-08-20T17:08:12;6.55;;;1.90;;
41568;SDS011;27283;52.504;13.358;2023-08-20T17:10:50;3.92;;;1.73;;
41568;SDS011;27283;52.504;13.358;2023-08-20T17:13:23;3.95;;;1.75;;
41568;SDS011;27283;52.504;13.358;2023-08-20T17:16:12;6.18;;;1.80;;
41568;SDS011;27283;52.504;13.358;2023-08-20T17:18:59;6.18;;;2.08;;
41568;SDS011;27283;52.504;13.358;2023-08-20T17:21:32;4.15;;;1.73;;
41568;SDS011;27283;52.504;13.358;2023-08-20T17:24:04;8.95;;;2.20;;